Time;durP1;ratioP1;P1;durP2;ratioP2;P2;SDS_P1;SDS_P2;PMS_P1;PMS_P2;Temp;Humidity;BMP_temperature;BMP_pressure;BME280_temperature;BME280_humidity;BME280_pressure;Samples;Min_cycle;Max_cycle;Signal;HPM_P1;HPM_P2
2024/01/10 00:00:13;;;;;;;;;;;-2.60;99.90;;;;;;5098602;28;19923;-68
2024/01/10 00:02:42;;;;;;;;;;;-2.30;99.90;;;;;;5093763;28;19935;-68
2024/01/10 00:05:10;;;;;;;;;;;-2.40;99.90;;;;;;5102555;28;20349;-67
2024/01/10 00:07:38;;;;;;;;;;;-2.40;99.90;;;;;;5084304;28;19952;-67
2024/01/10 00:10:06;;;;;;;;;;;-2.30;99.90;;;;;;5096735;28;19950;-67
2024/01/10 00:12:36;;;;;;;;;;;-2.40;99.90;;;;;;5094734;28;19927;-68
2024/01/10 00:15:04;;;;;;;;;;;-2.40;99.90;;;;;;5100688;28;19920;-68
2024/01/10 00:17:33;;;;;;;;;;;-2.50;99.90;;;;;;5095329;28;19927;-68
2024/01/10 00:20:02;;;;;;;;;;;-2.40;99.90;;;;;;5100552;28;19919;-66
2024/01/10 00:22:30;;;;;;;;;;;-2.30;99.90;;;;;;5093696;28;19934;-67
2024/01/10 00:24:58;;;;;;;;;;;-2.00;99.90;;;;;;5096545;28;19924;-70
2024/01/10 00:27:26;;;;;;;;;;;-2.00;99.90;;;;;;5100021;28;19926;-68
2024/01/10 00:29:56;;;;;;;;;;;-2.20;99.90;;;;;;5092308;28;19951;-67
2024/01/10 00:32:24;;;;;;;;;;;-2.30;99.90;;;;;;5094236;28;19924;-68
2024/01/10 00:34:52;;;;;;;;;;;-2.40;99.90;;;;;;5092920;28;20014;-68
2024/01/10 00:37:21;;;;;;;;;;;-2.50;99.90;;;;;;5099128;28;20546;-68
2024/01/10 00:39:49;;;;;;;;;;;-2.70;99.90;;;;;;5095012;28;19920;-67
2024/01/10 00:42:17;;;;;;;;;;;-2.50;99.90;;;;;;5092950;28;19927;-67
2024/01/10 00:44:45;;;;;;;;;;;-2.70;99.90;;;;;;5094049;28;19927;-67
2024/01/10 00:47:13;;;;;;;;;;;-2.80;99.90;;;;;;5091655;28;19920;-66
2024/01/10 00:49:41;;;;;;;;;;;-3.00;99.90;;;;;;5095740;28;19963;-67
2024/01/10 00:52:08;;;;;;;;;;;-3.00;99.90;;;;;;5097794;28;19963;-67
2024/01/10 00:54:38;;;;;;;;;;;-2.50;99.90;;;;;;5089006;28;19920;-68
2024/01/10 00:57:05;;;;;;;;;;;-2.50;99.90;;;;;;5091262;28;20455;-69
2024/01/10 00:59:33;;;;;;;;;;;-2.20;99.90;;;;;;5093200;28;20301;-68
2024/01/10 01:02:01;;;;;;;;;;;-2.00;99.90;;;;;;5093350;28;19924;-68
2024/01/10 01:04:29;;;;;;;;;;;-1.80;99.90;;;;;;5099527;28;19928;-68
2024/01/10 01:06:57;;;;;;;;;;;-2.20;99.90;;;;;;5094381;28;20337;-67
2024/01/10 01:09:24;;;;;;;;;;;-2.10;99.90;;;;;;5094413;28;19928;-67
2024/01/10 01:11:54;;;;;;;;;;;-2.40;99.90;;;;;;5091880;28;19924;-68
2024/01/10 01:14:21;;;;;;;;;;;-2.60;99.90;;;;;;5095588;28;19927;-67
2024/01/10 01:16:49;;;;;;;;;;;-2.70;99.90;;;;;;5098963;28;19923;-67
2024/01/10 01:19:17;;;;;;;;;;;-2.80;99.90;;;;;;5092310;28;19920;-67
2024/01/10 01:21:45;;;;;;;;;;;-2.90;99.90;;;;;;5096879;28;19969;-68
2024/01/10 01:24:13;;;;;;;;;;;-3.10;99.90;;;;;;5100644;28;19920;-68
2024/01/10 01:26:40;;;;;;;;;;;-3.40;99.90;;;;;;5096205;28;20067;-67
2024/01/10 01:29:09;;;;;;;;;;;-3.50;99.90;;;;;;5099246;28;19920;-67
2024/01/10 01:31:38;;;;;;;;;;;-3.50;99.90;;;;;;5103977;28;19924;-67
2024/01/10 01:34:06;;;;;;;;;;;-3.50;99.90;;;;;;5099585;28;20355;-67
2024/01/10 01:36:34;;;;;;;;;;;-3.60;99.90;;;;;;5097809;28;19919;-67
2024/01/10 01:39:02;;;;;;;;;;;-3.70;99.90;;;;;;5099826;28;19936;-68
2024/01/10 01:41:29;;;;;;;;;;;-3.90;99.90;;;;;;5099563;28;19928;-68
2024/01/10 01:43:57;;;;;;;;;;;-4.10;99.90;;;;;;5094705;28;19927;-67
2024/01/10 01:46:26;;;;;;;;;;;-3.90;99.90;;;;;;5100112;28;20014;-68
2024/01/10 01:48:54;;;;;;;;;;;-3.90;99.90;;;;;;5098264;28;19923;-67
2024/01/10 01:51:23;;;;;;;;;;;-4.00;99.90;;;;;;5099115;28;20003;-67
2024/01/10 01:53:51;;;;;;;;;;;-4.00;99.90;;;;;;5094527;28;19942;-67
2024/01/10 01:56:19;;;;;;;;;;;-3.90;99.90;;;;;;5095353;28;20351;-67
2024/01/10 01:58:48;;;;;;;;;;;-3.90;99.90;;;;;;5103828;28;20419;-67
2024/01/10 02:01:15;;;;;;;;;;;-3.70;99.90;;;;;;5101833;28;20011;-67
2024/01/10 02:03:45;;;;;;;;;;;-3.70;99.90;;;;;;5095823;28;19965;-66
2024/01/10 02:06:13;;;;;;;;;;;-3.70;99.90;;;;;;5102870;28;19959;-67
2024/01/10 02:08:41;;;;;;;;;;;-3.70;99.90;;;;;;5095287;28;19926;-68
2024/01/10 02:11:09;;;;;;;;;;;-3.70;99.90;;;;;;5100839;28;19919;-67
2024/01/10 02:13:37;;;;;;;;;;;-3.80;99.90;;;;;;5100556;28;19920;-67
2024/01/10 02:16:05;;;;;;;;;;;-3.70;99.90;;;;;;5096232;28;19932;-67
2024/01/10 02:18:34;;;;;;;;;;;-3.70;99.90;;;;;;5099791;28;22454;-67
2024/01/10 02:21:04;;;;;;;;;;;-3.60;99.90;;;;;;5102143;28;20001;-67
2024/01/10 02:23:31;;;;;;;;;;;-3.50;99.90;;;;;;5101049;28;19928;-68
2024/01/10 02:26:00;;;;;;;;;;;-3.60;99.90;;;;;;5098207;28;19928;-68
2024/01/10 02:28:28;;;;;;;;;;;-3.70;99.90;;;;;;5094524;28;19924;-67
2024/01/10 02:30:57;;;;;;;;;;;-3.80;99.90;;;;;;5096129;28;20483;-69
2024/01/10 02:33:25;;;;;;;;;;;-3.80;99.90;;;;;;5103476;28;19920;-70
2024/01/10 02:35:53;;;;;;;;;;;-3.60;99.90;;;;;;5099849;28;19920;-70
2024/01/10 02:38:23;;;;;;;;;;;-3.40;99.90;;;;;;5104384;28;20405;-70
2024/01/10 02:40:51;;;;;;;;;;;-3.30;99.90;;;;;;5097410;28;19924;-70
2024/01/10 02:43:20;;;;;;;;;;;-3.50;99.90;;;;;;5094195;28;20315;-70
2024/01/10 02:45:48;;;;;;;;;;;-3.50;99.90;;;;;;5107141;28;19920;-70
2024/01/10 02:48:15;;;;;;;;;;;-3.50;99.90;;;;;;5101201;28;19969;-71
2024/01/10 02:50:43;;;;;;;;;;;-3.50;99.90;;;;;;5096808;28;20294;-70
2024/01/10 02:53:11;;;;;;;;;;;-3.80;99.90;;;;;;5093358;28;19920;-69
2024/01/10 02:55:39;;;;;;;;;;;-3.80;99.90;;;;;;5091927;28;20015;-66
2024/01/10 02:58:07;;;;;;;;;;;-3.50;99.90;;;;;;5096934;28;19977;-67
2024/01/10 03:00:37;;;;;;;;;;;-3.40;99.90;;;;;;5099445;28;19932;-67
2024/01/10 03:03:05;;;;;;;;;;;-3.30;99.90;;;;;;5094887;28;19999;-67
2024/01/10 03:05:32;;;;;;;;;;;-3.10;99.90;;;;;;5097709;28;19951;-66
2024/01/10 03:08:02;;;;;;;;;;;-2.90;99.90;;;;;;5100488;28;20387;-67
2024/01/10 03:10:30;;;;;;;;;;;-2.70;99.90;;;;;;5092639;28;20024;-68
2024/01/10 03:12:57;;;;;;;;;;;-2.70;99.90;;;;;;5098638;28;19927;-68
2024/01/10 03:15:25;;;;;;;;;;;-2.60;99.90;;;;;;5097951;28;20302;-68
2024/01/10 03:17:55;;;;;;;;;;;-2.60;99.90;;;;;;5099130;28;19925;-68
2024/01/10 03:20:24;;;;;;;;;;;-2.70;99.90;;;;;;5092740;28;19959;-68
2024/01/10 03:22:52;;;;;;;;;;;-2.70;99.90;;;;;;5100042;28;19963;-69
2024/01/10 03:25:19;;;;;;;;;;;-2.80;99.90;;;;;;5094944;28;19923;-68
2024/01/10 03:27:47;;;;;;;;;;;-3.00;99.90;;;;;;5092921;28;19920;-68
2024/01/10 03:30:18;;;;;;;;;;;-2.90;99.90;;;;;;5095574;28;19926;-68
2024/01/10 03:32:45;;;;;;;;;;;-2.80;99.90;;;;;;5099316;28;19920;-69
2024/01/10 03:35:15;;;;;;;;;;;-2.70;99.90;;;;;;5098831;28;20026;-69
2024/01/10 03:37:43;;;;;;;;;;;-2.70;99.90;;;;;;5101580;28;20391;-68
2024/01/10 03:40:11;;;;;;;;;;;-2.60;99.90;;;;;;5095132;28;19920;-68
2024/01/10 03:42:39;;;;;;;;;;;-2.70;99.90;;;;;;5095170;28;20379;-68
2024/01/10 03:45:07;;;;;;;;;;;-2.70;99.90;;;;;;5093902;28;19920;-69
2024/01/10 03:47:34;;;;;;;;;;;-2.80;99.90;;;;;;5096106;28;19939;-68
2024/01/10 03:50:02;;;;;;;;;;;-2.70;99.90;;;;;;5095429;28;19969;-68
2024/01/10 03:52:31;;;;;;;;;;;-2.50;99.90;;;;;;5100484;22;19925;-73
2024/01/10 03:54:59;;;;;;;;;;;-2.40;99.90;;;;;;5059978;28;20359;-70
2024/01/10 03:57:27;;;;;;;;;;;-2.20;99.90;;;;;;5051756;28;19928;-71
2024/01/10 03:59:55;;;;;;;;;;;-2.00;99.90;;;;;;5055867;28;19928;-71
2024/01/10 04:02:22;;;;;;;;;;;-2.10;99.90;;;;;;5055645;28;19950;-71
2024/01/10 04:04:50;;;;;;;;;;;-2.10;99.90;;;;;;5055788;28;19921;-70
2024/01/10 04:07:18;;;;;;;;;;;-2.30;99.90;;;;;;5051994;28;20283;-70
2024/01/10 04:09:47;;;;;;;;;;;-2.50;99.90;;;;;;5066056;28;19927;-70
2024/01/10 04:12:15;;;;;;;;;;;-2.70;99.90;;;;;;5059210;28;19986;-71
2024/01/10 04:14:43;;;;;;;;;;;-2.60;99.90;;;;;;5059937;28;19925;-72
2024/01/10 04:17:10;;;;;;;;;;;-2.50;99.90;;;;;;5057999;28;20040;-71
2024/01/10 04:19:38;;;;;;;;;;;-2.50;99.90;;;;;;5058287;28;19920;-70
2024/01/10 04:22:06;;;;;;;;;;;-2.30;99.90;;;;;;5053566;28;19954;-70
2024/01/10 04:24:34;;;;;;;;;;;-2.30;99.90;;;;;;5058939;28;19924;-71
2024/01/10 04:27:04;;;;;;;;;;;-2.60;99.90;;;;;;5066770;28;19921;-71
2024/01/10 04:29:34;;;;;;;;;;;-2.90;99.90;;;;;;5050280;28;19921;-72
2024/01/10 04:32:02;;;;;;;;;;;-3.00;99.90;;;;;;5064146;28;20358;-71
2024/01/10 04:34:30;;;;;;;;;;;-3.00;99.90;;;;;;5063198;28;20390;-71
2024/01/10 04:36:57;;;;;;;;;;;-3.30;99.90;;;;;;5067460;28;20406;-71
2024/01/10 04:39:25;;;;;;;;;;;-3.30;99.90;;;;;;5056346;28;19920;-71
2024/01/10 04:41:53;;;;;;;;;;;-3.40;99.90;;;;;;5060695;28;19928;-71
2024/01/10 04:44:22;;;;;;;;;;;-3.40;99.90;;;;;;5056184;28;19928;-73
2024/01/10 04:46:50;;;;;;;;;;;-3.20;99.90;;;;;;5056140;28;20425;-71
2024/01/10 04:49:18;;;;;;;;;;;-3.20;99.90;;;;;;5063882;28;19981;-70
2024/01/10 04:51:46;;;;;;;;;;;-2.80;99.90;;;;;;5052495;28;19927;-71
2024/01/10 04:54:13;;;;;;;;;;;-2.70;99.90;;;;;;5065529;28;19921;-72
2024/01/10 04:56:41;;;;;;;;;;;-2.70;99.90;;;;;;5063205;28;20350;-71
2024/01/10 04:59:09;;;;;;;;;;;-2.40;99.90;;;;;;5062568;28;20342;-72
2024/01/10 05:01:38;;;;;;;;;;;-2.20;99.90;;;;;;5056302;28;20531;-72
2024/01/10 05:04:06;;;;;;;;;;;-2.30;99.90;;;;;;5068166;28;20352;-72
2024/01/10 05:06:34;;;;;;;;;;;-2.20;99.90;;;;;;5059073;28;20449;-72
2024/01/10 05:09:02;;;;;;;;;;;-2.00;99.90;;;;;;5072010;28;19928;-71
2024/01/10 05:11:30;;;;;;;;;;;-1.80;99.90;;;;;;5073971;28;19921;-71
2024/01/10 05:13:57;;;;;;;;;;;-1.70;99.90;;;;;;5072885;28;19928;-74
2024/01/10 05:16:25;;;;;;;;;;;-1.50;99.90;;;;;;5069761;28;19928;-71
2024/01/10 05:18:54;;;;;;;;;;;-1.40;99.90;;;;;;5069943;28;19927;-72
2024/01/10 05:21:22;;;;;;;;;;;-1.20;99.90;;;;;;5055719;28;19944;-71
2024/01/10 05:23:50;;;;;;;;;;;-1.10;99.90;;;;;;5073878;28;19920;-71
2024/01/10 05:26:18;;;;;;;;;;;-1.00;99.90;;;;;;5056477;28;19931;-74
2024/01/10 05:28:46;;;;;;;;;;;-0.90;99.90;;;;;;5057952;28;19920;-71
2024/01/10 05:31:14;;;;;;;;;;;-0.90;99.90;;;;;;5061869;28;20706;-70
2024/01/10 05:33:42;;;;;;;;;;;-0.90;99.90;;;;;;5068397;28;19921;-72
2024/01/10 05:36:12;;;;;;;;;;;-0.70;99.90;;;;;;5057722;28;19920;-72
2024/01/10 05:38:41;;;;;;;;;;;-0.80;99.90;;;;;;5064373;28;19944;-72
2024/01/10 05:41:09;;;;;;;;;;;-1.00;99.90;;;;;;5059661;28;19974;-72
2024/01/10 05:43:37;;;;;;;;;;;-1.30;99.90;;;;;;5067856;28;20014;-72
2024/01/10 05:46:05;;;;;;;;;;;-1.40;99.90;;;;;;5068886;28;19928;-72
2024/01/10 05:48:33;;;;;;;;;;;-1.40;99.90;;;;;;5070917;28;19921;-72
2024/01/10 05:51:01;;;;;;;;;;;-1.40;99.90;;;;;;5062826;28;19921;-72
2024/01/10 05:53:30;;;;;;;;;;;-1.40;99.90;;;;;;5062333;28;20272;-72
2024/01/10 05:55:58;;;;;;;;;;;-1.30;99.90;;;;;;5071131;28;19924;-71
2024/01/10 05:58:26;;;;;;;;;;;-1.40;99.90;;;;;;5053193;28;19967;-71
2024/01/10 06:00:55;;;;;;;;;;;-1.60;99.90;;;;;;5041581;28;19999;-74
2024/01/10 06:03:24;;;;;;;;;;;-2.00;99.90;;;;;;5038954;28;19921;-72
2024/01/10 06:05:52;;;;;;;;;;;-2.40;99.90;;;;;;5057315;28;19970;-71
2024/01/10 06:08:20;;;;;;;;;;;-2.90;99.90;;;;;;5055548;28;19920;-68
2024/01/10 06:10:50;;;;;;;;;;;-3.30;99.90;;;;;;5057806;28;19920;-69
2024/01/10 06:13:18;;;;;;;;;;;-3.50;99.90;;;;;;5055754;28;19920;-72
2024/01/10 06:15:46;;;;;;;;;;;-3.70;99.90;;;;;;5057652;28;19928;-69
2024/01/10 06:18:14;;;;;;;;;;;-3.90;99.90;;;;;;5063932;28;19920;-69
2024/01/10 06:20:42;;;;;;;;;;;-4.10;99.90;;;;;;5058656;28;19920;-71
2024/01/10 06:23:10;;;;;;;;;;;-4.10;99.90;;;;;;5058617;28;19943;-70
2024/01/10 06:25:38;;;;;;;;;;;-4.00;99.90;;;;;;5060961;28;19948;-69
2024/01/10 06:28:07;;;;;;;;;;;-4.10;99.90;;;;;;5052914;28;19967;-69
2024/01/10 06:30:35;;;;;;;;;;;-4.20;99.90;;;;;;5054384;28;19920;-69
2024/01/10 06:33:06;;;;;;;;;;;-4.20;99.90;;;;;;5072623;28;19925;-69
2024/01/10 06:35:35;;;;;;;;;;;-4.30;99.90;;;;;;5072631;28;19921;-69
2024/01/10 06:38:03;;;;;;;;;;;-4.40;99.90;;;;;;5058719;28;20312;-69
2024/01/10 06:40:32;;;;;;;;;;;-4.60;99.90;;;;;;5064133;28;19920;-69
2024/01/10 06:42:59;;;;;;;;;;;-4.70;99.90;;;;;;5067079;28;19921;-70
2024/01/10 06:45:29;;;;;;;;;;;-4.70;99.90;;;;;;5061997;28;19920;-70
2024/01/10 06:47:57;;;;;;;;;;;-4.70;99.90;;;;;;5067739;28;20002;-70
2024/01/10 06:50:25;;;;;;;;;;;-4.60;99.90;;;;;;5060500;28;20278;-69
2024/01/10 06:52:53;;;;;;;;;;;-4.70;99.90;;;;;;5060131;28;19967;-69
2024/01/10 06:55:22;;;;;;;;;;;-4.60;99.90;;;;;;5068867;28;19983;-68
2024/01/10 06:57:52;;;;;;;;;;;-4.70;99.90;;;;;;5063097;28;19971;-70
2024/01/10 07:00:20;;;;;;;;;;;-4.70;99.90;;;;;;5051399;28;19927;-70
2024/01/10 07:02:51;;;;;;;;;;;-4.70;99.90;;;;;;5072196;28;19920;-69
2024/01/10 07:05:19;;;;;;;;;;;-4.70;99.90;;;;;;5064197;28;20377;-69
2024/01/10 07:07:49;;;;;;;;;;;-4.70;99.90;;;;;;5063966;28;19927;-68
2024/01/10 07:10:17;;;;;;;;;;;-4.70;99.90;;;;;;5054981;28;19920;-69
2024/01/10 07:12:45;;;;;;;;;;;-4.70;99.90;;;;;;5060018;28;20384;-69
2024/01/10 07:15:13;;;;;;;;;;;-4.80;99.90;;;;;;5052022;28;19928;-69
2024/01/10 07:17:40;;;;;;;;;;;-4.80;99.90;;;;;;5062948;28;20071;-69
2024/01/10 07:20:11;;;;;;;;;;;-4.80;99.90;;;;;;5056170;28;20023;-70
2024/01/10 07:22:41;;;;;;;;;;;-4.80;99.90;;;;;;5070592;28;19928;-70
2024/01/10 07:25:09;;;;;;;;;;;-4.80;99.90;;;;;;5062377;28;20012;-69
2024/01/10 07:27:37;;;;;;;;;;;-4.80;99.90;;;;;;5063117;28;19921;-69
2024/01/10 07:30:11;;;;;;;;;;;-4.90;99.90;;;;;;5051105;28;19920;-70
2024/01/10 07:32:39;;;;;;;;;;;-4.80;99.90;;;;;;5059450;28;20006;-69
2024/01/10 07:35:10;;;;;;;;;;;-4.80;99.90;;;;;;5058002;28;19931;-69
2024/01/10 07:37:39;;;;;;;;;;;-4.80;99.90;;;;;;5071214;28;19920;-69
2024/01/10 07:40:08;;;;;;;;;;;-4.80;99.90;;;;;;5064603;28;19927;-69
2024/01/10 07:42:36;;;;;;;;;;;-4.80;99.90;;;;;;5061383;28;20448;-69
2024/01/10 07:45:04;;;;;;;;;;;-4.80;99.90;;;;;;5071405;28;19928;-69
2024/01/10 07:47:34;;;;;;;;;;;-4.70;99.90;;;;;;5071247;28;20319;-71
2024/01/10 07:50:03;;;;;;;;;;;-4.70;99.90;;;;;;5070728;28;19966;-71
2024/01/10 07:52:32;;;;;;;;;;;-4.70;99.90;;;;;;5070788;28;20373;-71
2024/01/10 07:55:00;;;;;;;;;;;-4.70;99.90;;;;;;5057712;28;19925;-69
2024/01/10 07:57:27;;;;;;;;;;;-4.70;99.90;;;;;;5055471;28;19927;-69
2024/01/10 07:59:55;;;;;;;;;;;-4.60;99.90;;;;;;5055759;28;19978;-69
2024/01/10 08:02:23;;;;;;;;;;;-4.60;99.90;;;;;;5061969;28;19921;-72
2024/01/10 08:04:51;;;;;;;;;;;-4.50;99.90;;;;;;5063480;28;19926;-72
2024/01/10 08:07:19;;;;;;;;;;;-4.40;99.90;;;;;;5054952;28;19987;-70
2024/01/10 08:09:48;;;;;;;;;;;-4.30;99.90;;;;;;5042810;28;19928;-71
2024/01/10 08:12:16;;;;;;;;;;;-4.20;99.90;;;;;;5058384;28;20372;-69
2024/01/10 08:14:45;;;;;;;;;;;-4.10;99.90;;;;;;5050540;28;20392;-71
2024/01/10 08:17:13;;;;;;;;;;;-3.90;99.90;;;;;;5059404;28;20014;-69
2024/01/10 08:19:41;;;;;;;;;;;-3.70;99.90;;;;;;5062038;28;19974;-70
2024/01/10 08:22:09;;;;;;;;;;;-3.80;99.90;;;;;;5063536;28;19921;-70
2024/01/10 08:24:37;;;;;;;;;;;-3.70;99.90;;;;;;5069183;28;19920;-71
2024/01/10 08:27:06;;;;;;;;;;;-3.60;99.90;;;;;;5056743;28;19920;-72
2024/01/10 08:29:33;;;;;;;;;;;-3.50;99.90;;;;;;5032247;28;19979;-69
2024/01/10 08:32:03;;;;;;;;;;;-3.50;99.90;;;;;;5055726;28;20276;-70
2024/01/10 08:34:31;;;;;;;;;;;-3.40;99.90;;;;;;5057475;28;20298;-70
2024/01/10 08:36:59;;;;;;;;;;;-3.30;99.90;;;;;;5062730;28;19983;-70
2024/01/10 08:39:28;;;;;;;;;;;-3.20;99.90;;;;;;5059994;28;19921;-70
2024/01/10 08:41:56;;;;;;;;;;;-3.10;99.90;;;;;;5063331;28;19943;-69
2024/01/10 08:44:25;;;;;;;;;;;-3.10;99.90;;;;;;5060311;28;19924;-70
2024/01/10 08:46:53;;;;;;;;;;;-3.00;99.90;;;;;;5064202;28;19939;-73
2024/01/10 08:49:21;;;;;;;;;;;-2.90;99.90;;;;;;5066962;28;20418;-70
2024/01/10 08:51:49;;;;;;;;;;;-2.80;99.90;;;;;;5059350;28;19970;-69
2024/01/10 08:54:19;;;;;;;;;;;-2.70;99.90;;;;;;5065768;28;19929;-72
2024/01/10 08:56:47;;;;;;;;;;;-2.50;99.90;;;;;;5055271;28;19924;-70
2024/01/10 08:59:15;;;;;;;;;;;-2.20;99.90;;;;;;5064100;28;19928;-73
2024/01/10 09:01:44;;;;;;;;;;;-1.90;99.90;;;;;;5062175;28;19924;-70
2024/01/10 09:04:12;;;;;;;;;;;-1.70;99.90;;;;;;5061289;28;20340;-74
2024/01/10 09:06:40;;;;;;;;;;;-1.60;99.90;;;;;;5069645;28;19927;-73
2024/01/10 09:09:08;;;;;;;;;;;-1.60;99.90;;;;;;5062031;28;19927;-70
2024/01/10 09:11:36;;;;;;;;;;;-1.50;99.90;;;;;;5069229;28;19974;-70
2024/01/10 09:14:08;;;;;;;;;;;-1.60;99.90;;;;;;5064551;28;19920;-69
2024/01/10 09:16:38;;;;;;;;;;;-1.70;99.90;;;;;;5062002;28;20334;-68
2024/01/10 09:19:07;;;;;;;;;;;-1.80;99.90;;;;;;5061608;28;20342;-69
2024/01/10 09:21:38;;;;;;;;;;;-1.90;99.90;;;;;;5065647;28;20315;-69
2024/01/10 09:24:08;;;;;;;;;;;-2.10;99.90;;;;;;5063140;28;20466;-69
2024/01/10 09:26:53;;;;;;;;;;;-2.20;99.90;;;;;;5068378;28;19956;-69
2024/01/10 09:29:21;;;;;;;;;;;-2.10;99.90;;;;;;5061341;28;19925;-70
2024/01/10 09:31:49;;;;;;;;;;;-2.10;99.90;;;;;;5060658;28;19920;-69
2024/01/10 09:34:19;;;;;;;;;;;-2.00;99.90;;;;;;5063160;28;19956;-69
2024/01/10 09:36:48;;;;;;;;;;;-1.90;99.90;;;;;;5062100;28;20034;-68
2024/01/10 09:39:16;;;;;;;;;;;-1.80;99.90;;;;;;5065682;28;19920;-69
2024/01/10 09:41:47;;;;;;;;;;;-1.80;99.90;;;;;;5068585;28;19935;-70
2024/01/10 09:44:17;;;;;;;;;;;-1.80;99.90;;;;;;5058587;28;20366;-69
2024/01/10 09:46:47;;;;;;;;;;;-1.90;99.90;;;;;;5062523;28;19929;-69
2024/01/10 09:49:15;;;;;;;;;;;-2.00;99.90;;;;;;5063142;28;20280;-69
2024/01/10 09:51:45;;;;;;;;;;;-2.00;99.90;;;;;;5061264;28;19924;-69
2024/01/10 09:54:14;;;;;;;;;;;-2.20;99.90;;;;;;5081455;22;19920;-65
2024/01/10 09:56:42;;;;;;;;;;;-2.20;99.90;;;;;;5046738;28;20015;-65
2024/01/10 09:59:12;;;;;;;;;;;-2.10;99.90;;;;;;5043351;28;19921;-67
2024/01/10 10:01:40;;;;;;;;;;;-2.20;99.90;;;;;;5042925;28;19935;-67
2024/01/10 10:04:10;;;;;;;;;;;-2.20;99.90;;;;;;5044756;28;19921;-67
2024/01/10 10:06:38;;;;;;;;;;;-2.20;99.90;;;;;;5043422;28;19928;-67
2024/01/10 10:09:09;;;;;;;;;;;-2.20;99.90;;;;;;5040397;28;19960;-65
2024/01/10 10:11:37;;;;;;;;;;;-2.20;99.90;;;;;;5036783;28;20628;-66
2024/01/10 10:14:17;;;;;;;;;;;-2.30;99.90;;;;;;5037250;28;20342;-67
2024/01/10 10:16:46;;;;;;;;;;;-2.20;99.90;;;;;;5037334;28;19972;-69
2024/01/10 10:19:26;;;;;;;;;;;-2.20;99.90;;;;;;5037250;28;19936;-66
2024/01/10 10:22:09;;;;;;;;;;;-2.20;99.90;;;;;;5038517;28;19931;-69
2024/01/10 10:24:39;;;;;;;;;;;-2.20;99.90;;;;;;5037503;28;20503;-68
2024/01/10 10:27:09;;;;;;;;;;;-2.20;99.90;;;;;;5038597;28;19928;-68
2024/01/10 10:29:36;;;;;;;;;;;-2.20;99.90;;;;;;5038010;28;19940;-68
2024/01/10 10:32:06;;;;;;;;;;;-2.10;99.90;;;;;;5039638;28;19929;-68
2024/01/10 10:34:34;;;;;;;;;;;-2.10;99.90;;;;;;5036977;28;20034;-68
2024/01/10 10:37:02;;;;;;;;;;;-2.10;99.90;;;;;;5038514;28;20015;-68
2024/01/10 10:39:29;;;;;;;;;;;-2.10;99.90;;;;;;5036709;28;19932;-68
2024/01/10 10:42:01;;;;;;;;;;;-2.10;99.90;;;;;;5037665;28;21060;-68
2024/01/10 10:44:29;;;;;;;;;;;-2.10;99.90;;;;;;5036456;28;19929;-68
2024/01/10 10:47:03;;;;;;;;;;;-2.00;99.90;;;;;;5037814;28;19935;-68
2024/01/10 10:49:43;;;;;;;;;;;-2.10;99.90;;;;;;5036715;28;20701;-68
2024/01/10 10:52:10;;;;;;;;;;;-2.10;99.90;;;;;;5038266;28;20011;-68
2024/01/10 10:54:39;;;;;;;;;;;-2.00;99.90;;;;;;5025696;28;19925;-66
2024/01/10 10:57:08;;;;;;;;;;;-1.90;99.90;;;;;;5017152;28;19929;-66
2024/01/10 10:59:37;;;;;;;;;;;-1.90;99.90;;;;;;5017734;28;20999;-66
2024/01/10 11:02:06;;;;;;;;;;;-1.80;99.90;;;;;;5018212;28;19929;-66
2024/01/10 11:04:35;;;;;;;;;;;-1.90;99.90;;;;;;5016540;28;20513;-66
2024/01/10 11:07:03;;;;;;;;;;;-1.90;99.90;;;;;;5017590;28;19975;-66
2024/01/10 11:09:32;;;;;;;;;;;-1.80;99.90;;;;;;5016206;28;20027;-66
2024/01/10 11:12:09;;;;;;;;;;;-1.80;99.90;;;;;;5017015;28;19929;-67
2024/01/10 11:14:43;;;;;;;;;;;-1.80;99.90;;;;;;5018160;28;19933;-67
2024/01/10 11:17:20;;;;;;;;;;;-1.70;99.90;;;;;;5018515;28;20732;-67
2024/01/10 11:19:59;;;;;;;;;;;-1.60;99.90;;;;;;5016396;28;19925;-67
2024/01/10 11:22:38;;;;;;;;;;;-1.50;99.90;;;;;;5015395;28;19924;-67
2024/01/10 11:25:06;;;;;;;;;;;-1.50;99.90;;;;;;5018668;28;19929;-66
2024/01/10 11:27:34;;;;;;;;;;;-1.50;99.90;;;;;;5017695;28;19968;-66
2024/01/10 11:30:05;;;;;;;;;;;-1.50;99.90;;;;;;5018083;28;19984;-66
2024/01/10 11:32:33;;;;;;;;;;;-1.50;99.90;;;;;;5017837;28;20944;-67
2024/01/10 11:35:07;;;;;;;;;;;-1.50;99.90;;;;;;5017852;28;20003;-67
2024/01/10 11:37:39;;;;;;;;;;;-1.40;99.90;;;;;;5017819;28;20296;-69
2024/01/10 11:40:09;;;;;;;;;;;-1.30;99.90;;;;;;5015829;28;20642;-67
2024/01/10 11:42:42;;;;;;;;;;;-1.30;99.90;;;;;;5016553;28;20180;-66
2024/01/10 11:45:11;;;;;;;;;;;-1.10;99.90;;;;;;5017558;28;19999;-67
2024/01/10 11:47:39;;;;;;;;;;;-0.90;99.90;;;;;;5018191;28;19929;-67
2024/01/10 11:50:08;;;;;;;;;;;-0.80;99.90;;;;;;5016254;28;20308;-66
2024/01/10 11:52:38;;;;;;;;;;;-0.80;99.90;;;;;;5016838;28;19929;-66
2024/01/10 11:55:07;;;;;;;;;;;-0.90;99.90;;;;;;5034046;28;19948;-67
2024/01/10 11:57:35;;;;;;;;;;;-0.80;99.90;;;;;;5039075;28;19931;-69
2024/01/10 12:00:05;;;;;;;;;;;-0.80;99.90;;;;;;5039156;28;19928;-67
2024/01/10 12:02:35;;;;;;;;;;;-0.70;99.90;;;;;;5039361;28;19935;-66
2024/01/10 12:05:03;;;;;;;;;;;-0.70;99.90;;;;;;5038171;28;19924;-67
2024/01/10 12:07:31;;;;;;;;;;;-0.70;99.90;;;;;;5038265;28;19990;-67
2024/01/10 12:09:59;;;;;;;;;;;-0.70;99.90;;;;;;5037932;28;20439;-67
2024/01/10 12:12:27;;;;;;;;;;;-0.60;99.90;;;;;;5038691;28;20426;-67
2024/01/10 12:14:54;;;;;;;;;;;-0.60;99.90;;;;;;5039560;28;19928;-67
2024/01/10 12:17:22;;;;;;;;;;;-0.50;99.90;;;;;;5039447;28;19928;-67
2024/01/10 12:19:53;;;;;;;;;;;-0.50;99.90;;;;;;5039668;28;19921;-67
2024/01/10 12:22:21;;;;;;;;;;;-0.50;99.90;;;;;;5038510;28;19943;-67
2024/01/10 12:24:49;;;;;;;;;;;-0.40;99.90;;;;;;5038948;28;19983;-67
2024/01/10 12:27:19;;;;;;;;;;;-0.40;99.90;;;;;;5039467;28;20498;-67
2024/01/10 12:29:48;;;;;;;;;;;-0.30;99.90;;;;;;5038945;28;20011;-67
2024/01/10 12:32:18;;;;;;;;;;;-0.20;99.90;;;;;;5038289;28;20367;-67
2024/01/10 12:34:46;;;;;;;;;;;-0.20;99.90;;;;;;5038882;28;19966;-67
2024/01/10 12:37:15;;;;;;;;;;;-0.20;99.90;;;;;;5038478;28;20006;-67
2024/01/10 12:39:44;;;;;;;;;;;-0.20;99.90;;;;;;5038710;28;19929;-67
2024/01/10 12:42:11;;;;;;;;;;;0.00;99.90;;;;;;5037771;28;19928;-67
2024/01/10 12:44:43;;;;;;;;;;;0.10;99.90;;;;;;5038559;28;19935;-67
2024/01/10 12:47:19;;;;;;;;;;;0.10;99.90;;;;;;5039345;28;20263;-67
2024/01/10 12:49:47;;;;;;;;;;;0.30;99.90;;;;;;5038048;28;21256;-67
2024/01/10 12:52:16;;;;;;;;;;;0.40;99.90;;;;;;5038750;28;19935;-67
2024/01/10 12:54:48;;;;;;;;;;;0.50;99.90;;;;;;5042895;28;19932;-67
2024/01/10 12:57:16;;;;;;;;;;;0.60;99.90;;;;;;5041340;28;19931;-69
2024/01/10 12:59:45;;;;;;;;;;;0.50;99.90;;;;;;5041610;28;21239;-67
2024/01/10 13:02:12;;;;;;;;;;;0.30;99.90;;;;;;5043811;28;19954;-68
2024/01/10 13:04:41;;;;;;;;;;;0.30;99.90;;;;;;5042286;28;19971;-67
2024/01/10 13:07:09;;;;;;;;;;;0.10;99.90;;;;;;5045973;28;20346;-67
2024/01/10 13:09:39;;;;;;;;;;;0.10;99.90;;;;;;5025496;28;20776;-67
2024/01/10 13:12:07;;;;;;;;;;;0.10;99.90;;;;;;5041620;28;20370;-67
2024/01/10 13:14:35;;;;;;;;;;;0.00;99.90;;;;;;5047509;28;19925;-67
2024/01/10 13:17:04;;;;;;;;;;;0.00;99.90;;;;;;5047082;28;19964;-67
2024/01/10 13:19:32;;;;;;;;;;;0.00;99.90;;;;;;5044790;28;20387;-67
2024/01/10 13:22:01;;;;;;;;;;;-0.10;99.90;;;;;;5044375;28;19931;-66
2024/01/10 13:24:34;;;;;;;;;;;-0.10;99.90;;;;;;5044192;28;20519;-66
2024/01/10 13:27:03;;;;;;;;;;;0.00;99.90;;;;;;5042249;28;19932;-66
2024/01/10 13:29:31;;;;;;;;;;;-0.10;99.90;;;;;;5045758;28;19928;-66
2024/01/10 13:31:59;;;;;;;;;;;-0.20;99.90;;;;;;5046367;28;20015;-67
2024/01/10 13:34:27;;;;;;;;;;;-0.10;99.90;;;;;;5043527;28;19924;-68
2024/01/10 13:36:55;;;;;;;;;;;-0.10;99.90;;;;;;5041428;28;19936;-67
2024/01/10 13:39:23;;;;;;;;;;;-0.10;99.90;;;;;;5047701;28;19924;-67
2024/01/10 13:41:51;;;;;;;;;;;-0.10;99.90;;;;;;5050544;28;19927;-67
2024/01/10 13:44:20;;;;;;;;;;;-0.10;99.90;;;;;;5046343;28;19928;-67
2024/01/10 13:46:50;;;;;;;;;;;-0.10;99.90;;;;;;5043167;28;19939;-67
2024/01/10 13:49:18;;;;;;;;;;;-0.10;99.90;;;;;;5049843;28;19928;-67
2024/01/10 13:51:47;;;;;;;;;;;0.00;99.90;;;;;;5046505;28;20789;-67
2024/01/10 13:54:15;;;;;;;;;;;-0.10;99.90;;;;;;5044967;28;19932;-67
2024/01/10 13:56:43;;;;;;;;;;;-0.10;99.90;;;;;;5048831;28;19932;-67
2024/01/10 13:59:10;;;;;;;;;;;-0.10;99.90;;;;;;5046576;28;20649;-67
2024/01/10 14:01:41;;;;;;;;;;;-0.10;99.90;;;;;;5042149;28;19928;-67
2024/01/10 14:04:08;;;;;;;;;;;-0.10;99.90;;;;;;5045989;28;19932;-67
2024/01/10 14:06:36;;;;;;;;;;;-0.10;99.90;;;;;;5048807;28;19982;-68
2024/01/10 14:09:03;;;;;;;;;;;-0.20;99.90;;;;;;5045494;28;19940;-66
2024/01/10 14:11:33;;;;;;;;;;;-0.20;99.90;;;;;;5042732;28;19929;-67
2024/01/10 14:14:01;;;;;;;;;;;-0.20;99.90;;;;;;5045821;28;19936;-68
2024/01/10 14:16:30;;;;;;;;;;;-0.20;99.90;;;;;;5045715;28;19928;-66
2024/01/10 14:18:59;;;;;;;;;;;-0.20;99.90;;;;;;5045781;28;20424;-67
2024/01/10 14:21:27;;;;;;;;;;;-0.30;99.90;;;;;;5045079;28;20033;-67
2024/01/10 14:23:54;;;;;;;;;;;-0.30;99.90;;;;;;5048320;28;19924;-67
2024/01/10 14:26:22;;;;;;;;;;;-0.20;99.90;;;;;;5046588;28;19931;-67